sensor_id;sensor_type;location;lat;lon;timestamp;pressure;altitude;pressure_sealevel;temperature;humidity
42587;BME280;28216;53.362;-6.288;2022-07-18T00:02:07;101592.59;;;23.53;42.34
42587;BME280;28216;53.362;-6.288;2022-07-18T00:04:33;101586.50;;;23.45;42.95
42587;BME280;28216;53.362;-6.288;2022-07-18T00:06:58;101583.91;;;23.39;43.17
42587;BME280;28216;53.362;-6.288;2022-07-18T00:09:24;101590.97;;;23.33;43.65
42587;BME280;28216;53.362;-6.288;2022-07-18T00:11:51;101590.22;;;23.26;43.81
42587;BME280;28216;53.362;-6.288;2022-07-18T00:14:18;101590.88;;;23.22;44.54
42587;BME280;28216;53.362;-6.288;2022-07-18T00:16:44;101591.78;;;23.16;44.54
42587;BME280;28216;53.362;-6.288;2022-07-18T00:19:09;101585.69;;;23.08;44.71
42587;BME280;28216;53.362;-6.288;2022-07-18T00:21:35;101583.03;;;23.02;44.94
42587;BME280;28216;53.362;-6.288;2022-07-18T00:24:01;101576.94;;;22.95;45.53
42587;BME280;28216;53.362;-6.288;2022-07-18T00:26:26;101581.31;;;22.89;45.75
42587;BME280;28216;53.362;-6.288;2022-07-18T00:28:52;101583.84;;;22.84;45.84
42587;BME280;28216;53.362;-6.288;2022-07-18T00:31:17;101593.13;;;22.81;46.14
42587;BME280;28216;53.362;-6.288;2022-07-18T00:33:43;101583.28;;;22.75;46.35
42587;BME280;28216;53.362;-6.288;2022-07-18T00:36:08;101580.66;;;22.69;46.79
42587;BME280;28216;53.362;-6.288;2022-07-18T00:38:34;101581.91;;;22.66;46.86
42587;BME280;28216;53.362;-6.288;2022-07-18T00:40:59;101586.88;;;22.63;46.86
42587;BME280;28216;53.362;-6.288;2022-07-18T00:43:25;101586.72;;;22.58;47.32
42587;BME280;28216;53.362;-6.288;2022-07-18T00:45:51;101581.44;;;22.51;47.67
42587;BME280;28216;53.362;-6.288;2022-07-18T00:48:18;101582.53;;;22.43;48.08
42587;BME280;28216;53.362;-6.288;2022-07-18T00:50:44;101579.69;;;22.38;48.20
42587;BME280;28216;53.362;-6.288;2022-07-18T00:53:11;101580.13;;;22.35;48.36
42587;BME280;28216;53.362;-6.288;2022-07-18T00:55:38;101581.16;;;22.34;48.43
42587;BME280;28216;53.362;-6.288;2022-07-18T00:58:04;101584.47;;;22.30;48.60
42587;BME280;28216;53.362;-6.288;2022-07-18T01:00:29;101578.94;;;22.25;48.98
42587;BME280;28216;53.362;-6.288;2022-07-18T01:03:13;101585.13;;;22.18;49.03
42587;BME280;28216;53.362;-6.288;2022-07-18T01:05:39;101575.47;;;22.17;49.16
42587;BME280;28216;53.362;-6.288;2022-07-18T01:08:04;101581.03;;;22.16;49.67
42587;BME280;28216;53.362;-6.288;2022-07-18T01:10:30;101578.81;;;22.13;49.63
42587;BME280;28216;53.362;-6.288;2022-07-18T01:12:55;101578.19;;;22.11;49.59
42587;BME280;28216;53.362;-6.288;2022-07-18T01:15:21;101570.63;;;22.08;50.24
42587;BME280;28216;53.362;-6.288;2022-07-18T01:17:46;101569.41;;;22.04;50.33
42587;BME280;28216;53.362;-6.288;2022-07-18T01:20:12;101571.44;;;22.02;50.16
42587;BME280;28216;53.362;-6.288;2022-07-18T01:22:37;101567.56;;;21.98;50.27
42587;BME280;28216;53.362;-6.288;2022-07-18T01:25:06;101563.25;;;21.97;50.67
42587;BME280;28216;53.362;-6.288;2022-07-18T01:27:32;101573.72;;;21.98;50.58
42587;BME280;28216;53.362;-6.288;2022-07-18T01:29:57;101567.78;;;21.96;50.37
42587;BME280;28216;53.362;-6.288;2022-07-18T01:32:23;101553.00;;;21.94;50.69
42587;BME280;28216;53.362;-6.288;2022-07-18T01:34:49;101562.06;;;21.93;50.62
42587;BME280;28216;53.362;-6.288;2022-07-18T01:37:16;101563.09;;;21.92;50.72
42587;BME280;28216;53.362;-6.288;2022-07-18T01:39:43;101563.31;;;21.90;50.78
42587;BME280;28216;53.362;-6.288;2022-07-18T01:42:10;101556.53;;;21.87;51.00
42587;BME280;28216;53.362;-6.288;2022-07-18T01:44:37;101552.44;;;21.85;51.22
42587;BME280;28216;53.362;-6.288;2022-07-18T01:47:04;101559.03;;;21.82;51.34
42587;BME280;28216;53.362;-6.288;2022-07-18T01:49:31;101550.84;;;21.77;51.84
42587;BME280;28216;53.362;-6.288;2022-07-18T01:51:57;101553.13;;;21.74;51.89
42587;BME280;28216;53.362;-6.288;2022-07-18T01:54:25;101558.09;;;21.70;52.39
42587;BME280;28216;53.362;-6.288;2022-07-18T01:56:51;101556.88;;;21.66;52.25
42587;BME280;28216;53.362;-6.288;2022-07-18T01:59:18;101550.72;;;21.66;52.41
42587;BME280;28216;53.362;-6.288;2022-07-18T02:01:44;101553.81;;;21.63;52.57
42587;BME280;28216;53.362;-6.288;2022-07-18T02:04:10;101552.38;;;21.60;52.64
42587;BME280;28216;53.362;-6.288;2022-07-18T02:06:35;101556.50;;;21.56;52.78
42587;BME280;28216;53.362;-6.288;2022-07-18T02:09:01;101546.44;;;21.51;52.74
42587;BME280;28216;53.362;-6.288;2022-07-18T02:11:26;101548.72;;;21.48;52.93
42587;BME280;28216;53.362;-6.288;2022-07-18T02:13:52;101540.91;;;21.46;52.81
42587;BME280;28216;53.362;-6.288;2022-07-18T02:16:17;101538.69;;;21.43;53.28
42587;BME280;28216;53.362;-6.288;2022-07-18T02:18:44;101540.94;;;21.40;53.36
42587;BME280;28216;53.362;-6.288;2022-07-18T02:21:09;101529.66;;;21.38;53.02
42587;BME280;28216;53.362;-6.288;2022-07-18T02:23:35;101530.69;;;21.37;53.51
42587;BME280;28216;53.362;-6.288;2022-07-18T02:26:01;101534.22;;;21.31;53.63
42587;BME280;28216;53.362;-6.288;2022-07-18T02:28:27;101525.41;;;21.30;53.64
42587;BME280;28216;53.362;-6.288;2022-07-18T02:30:52;101527.44;;;21.28;53.91
42587;BME280;28216;53.362;-6.288;2022-07-18T02:33:18;101534.63;;;21.28;53.90
42587;BME280;28216;53.362;-6.288;2022-07-18T02:35:43;101521.72;;;21.24;54.09
42587;BME280;28216;53.362;-6.288;2022-07-18T02:38:10;101525.00;;;21.20;54.52
42587;BME280;28216;53.362;-6.288;2022-07-18T02:40:35;101528.28;;;21.15;54.55
42587;BME280;28216;53.362;-6.288;2022-07-18T02:43:01;101525.63;;;21.15;54.43
42587;BME280;28216;53.362;-6.288;2022-07-18T02:45:27;101516.59;;;21.16;54.46
42587;BME280;28216;53.362;-6.288;2022-07-18T02:47:52;101528.28;;;21.15;54.71
42587;BME280;28216;53.362;-6.288;2022-07-18T02:50:18;101525.84;;;21.14;54.77
42587;BME280;28216;53.362;-6.288;2022-07-18T02:52:44;101516.41;;;21.11;54.77
42587;BME280;28216;53.362;-6.288;2022-07-18T02:55:11;101528.31;;;21.09;54.80
42587;BME280;28216;53.362;-6.288;2022-07-18T02:57:37;101520.72;;;21.06;55.28
42587;BME280;28216;53.362;-6.288;2022-07-18T03:00:04;101521.97;;;21.03;55.24
42587;BME280;28216;53.362;-6.288;2022-07-18T03:02:30;101523.00;;;21.02;55.30
42587;BME280;28216;53.362;-6.288;2022-07-18T03:04:56;101526.69;;;21.01;55.38
42587;BME280;28216;53.362;-6.288;2022-07-18T03:07:21;101522.00;;;20.97;55.52
42587;BME280;28216;53.362;-6.288;2022-07-18T03:09:47;101522.63;;;20.92;55.58
42587;BME280;28216;53.362;-6.288;2022-07-18T03:12:12;101518.72;;;20.88;55.74
42587;BME280;28216;53.362;-6.288;2022-07-18T03:14:38;101517.09;;;20.87;56.01
42587;BME280;28216;53.362;-6.288;2022-07-18T03:17:03;101526.53;;;20.83;55.89
42587;BME280;28216;53.362;-6.288;2022-07-18T03:19:29;101522.63;;;20.79;56.02
42587;BME280;28216;53.362;-6.288;2022-07-18T03:21:54;101527.34;;;20.77;55.94
42587;BME280;28216;53.362;-6.288;2022-07-18T03:24:20;101522.22;;;20.75;56.15
42587;BME280;28216;53.362;-6.288;2022-07-18T03:26:45;101526.31;;;20.71;56.26
42587;BME280;28216;53.362;-6.288;2022-07-18T03:29:12;101525.91;;;20.68;56.42
42587;BME280;28216;53.362;-6.288;2022-07-18T03:31:37;101520.59;;;20.68;56.60
42587;BME280;28216;53.362;-6.288;2022-07-18T03:34:03;101526.13;;;20.66;56.91
42587;BME280;28216;53.362;-6.288;2022-07-18T03:36:28;101525.50;;;20.64;56.75
42587;BME280;28216;53.362;-6.288;2022-07-18T03:38:54;101523.06;;;20.62;56.75
42587;BME280;28216;53.362;-6.288;2022-07-18T03:41:20;101518.53;;;20.56;56.99
42587;BME280;28216;53.362;-6.288;2022-07-18T03:43:45;101521.00;;;20.58;56.94
42587;BME280;28216;53.362;-6.288;2022-07-18T03:46:11;101517.94;;;20.54;57.17
42587;BME280;28216;53.362;-6.288;2022-07-18T03:48:36;101508.91;;;20.55;57.23
42587;BME280;28216;53.362;-6.288;2022-07-18T03:51:02;101507.69;;;20.51;57.20
42587;BME280;28216;53.362;-6.288;2022-07-18T03:53:29;101509.75;;;20.49;57.45
42587;BME280;28216;53.362;-6.288;2022-07-18T03:55:55;101508.09;;;20.48;57.73
42587;BME280;28216;53.362;-6.288;2022-07-18T03:58:20;101502.97;;;20.47;57.79
42587;BME280;28216;53.362;-6.288;2022-07-18T04:00:46;101493.34;;;20.46;58.00
42587;BME280;28216;53.362;-6.288;2022-07-18T04:03:12;101493.97;;;20.41;58.32
42587;BME280;28216;53.362;-6.288;2022-07-18T04:05:37;101494.19;;;20.40;58.30
42587;BME280;28216;53.362;-6.288;2022-07-18T04:08:03;101497.84;;;20.39;58.66
42587;BME280;28216;53.362;-6.288;2022-07-18T04:10:28;101494.56;;;20.37;58.83
42587;BME280;28216;53.362;-6.288;2022-07-18T04:12:54;101493.94;;;20.35;58.93
42587;BME280;28216;53.362;-6.288;2022-07-18T04:15:22;101489.84;;;20.32;59.14
42587;BME280;28216;53.362;-6.288;2022-07-18T04:17:48;101491.91;;;20.30;59.13
42587;BME280;28216;53.362;-6.288;2022-07-18T04:20:15;101490.88;;;20.24;59.44
42587;BME280;28216;53.362;-6.288;2022-07-18T04:22:54;101481.44;;;20.22;59.95
42587;BME280;28216;53.362;-6.288;2022-07-18T04:25:22;101487.19;;;20.19;59.98
42587;BME280;28216;53.362;-6.288;2022-07-18T04:27:49;101475.94;;;20.17;60.16
42587;BME280;28216;53.362;-6.288;2022-07-18T04:30:17;101474.28;;;20.16;60.17
42587;BME280;28216;53.362;-6.288;2022-07-18T04:32:43;101473.66;;;20.14;60.38
42587;BME280;28216;53.362;-6.288;2022-07-18T04:35:09;101478.19;;;20.13;60.65
42587;BME280;28216;53.362;-6.288;2022-07-18T04:37:36;101475.09;;;20.10;60.96
42587;BME280;28216;53.362;-6.288;2022-07-18T04:40:03;101482.28;;;20.09;61.02
42587;BME280;28216;53.362;-6.288;2022-07-18T04:42:29;101487.59;;;20.09;61.31
42587;BME280;28216;53.362;-6.288;2022-07-18T04:44:55;101480.84;;;20.07;61.54
42587;BME280;28216;53.362;-6.288;2022-07-18T04:47:21;101486.97;;;20.07;61.67
42587;BME280;28216;53.362;-6.288;2022-07-18T04:49:46;101480.41;;;20.03;62.05
42587;BME280;28216;53.362;-6.288;2022-07-18T04:52:12;101480.19;;;20.05;62.25
42587;BME280;28216;53.362;-6.288;2022-07-18T04:54:37;101481.00;;;20.05;62.14
42587;BME280;28216;53.362;-6.288;2022-07-18T04:57:03;101476.94;;;20.09;62.31
42587;BME280;28216;53.362;-6.288;2022-07-18T04:59:28;101485.97;;;20.15;61.94
42587;BME280;28216;53.362;-6.288;2022-07-18T05:01:54;101472.44;;;20.16;62.25
42587;BME280;28216;53.362;-6.288;2022-07-18T05:04:19;101468.56;;;20.19;61.80
42587;BME280;28216;53.362;-6.288;2022-07-18T05:06:45;101472.66;;;20.21;61.87
42587;BME280;28216;53.362;-6.288;2022-07-18T05:09:10;101477.34;;;20.26;62.17
42587;BME280;28216;53.362;-6.288;2022-07-18T05:11:35;101472.44;;;20.29;62.23
42587;BME280;28216;53.362;-6.288;2022-07-18T05:14:01;101476.53;;;20.32;62.57
42587;BME280;28216;53.362;-6.288;2022-07-18T05:16:27;101476.53;;;20.39;62.51
42587;BME280;28216;53.362;-6.288;2022-07-18T05:18:52;101478.19;;;20.40;62.55
42587;BME280;28216;53.362;-6.288;2022-07-18T05:21:18;101481.06;;;20.45;62.67
42587;BME280;28216;53.362;-6.288;2022-07-18T05:23:43;101478.81;;;20.48;62.63
42587;BME280;28216;53.362;-6.288;2022-07-18T05:26:11;101480.63;;;20.54;62.36
42587;BME280;28216;53.362;-6.288;2022-07-18T05:28:36;101486.97;;;20.60;62.40
42587;BME280;28216;53.362;-6.288;2022-07-18T05:31:02;101477.94;;;20.68;62.43
42587;BME280;28216;53.362;-6.288;2022-07-18T05:33:27;101483.25;;;20.74;62.34
42587;BME280;28216;53.362;-6.288;2022-07-18T05:35:52;101481.59;;;20.80;62.32
42587;BME280;28216;53.362;-6.288;2022-07-18T05:38:18;101470.13;;;20.86;62.30
42587;BME280;28216;53.362;-6.288;2022-07-18T05:40:43;101475.25;;;20.94;62.16
42587;BME280;28216;53.362;-6.288;2022-07-18T05:43:09;101470.28;;;21.04;61.97
42587;BME280;28216;53.362;-6.288;2022-07-18T05:45:34;101466.97;;;21.15;61.67
42587;BME280;28216;53.362;-6.288;2022-07-18T05:48:00;101470.63;;;21.28;61.51
42587;BME280;28216;53.362;-6.288;2022-07-18T05:50:25;101468.91;;;21.40;61.32
42587;BME280;28216;53.362;-6.288;2022-07-18T05:52:51;101467.41;;;21.50;60.74
42587;BME280;28216;53.362;-6.288;2022-07-18T05:55:17;101463.25;;;21.68;60.46
42587;BME280;28216;53.362;-6.288;2022-07-18T05:57:43;101461.25;;;21.88;59.94
42587;BME280;28216;53.362;-6.288;2022-07-18T06:00:10;101461.94;;;22.08;59.65
42587;BME280;28216;53.362;-6.288;2022-07-18T06:02:36;101454.69;;;22.40;58.21
42587;BME280;28216;53.362;-6.288;2022-07-18T06:05:03;101458.47;;;22.94;57.18
42587;BME280;28216;53.362;-6.288;2022-07-18T06:07:29;101461.28;;;23.48;55.97
42587;BME280;28216;53.362;-6.288;2022-07-18T06:09:54;101449.38;;;24.03;54.35
42587;BME280;28216;53.362;-6.288;2022-07-18T06:12:21;101458.94;;;24.46;53.30
42587;BME280;28216;53.362;-6.288;2022-07-18T06:14:46;101453.56;;;24.81;52.14
42587;BME280;28216;53.362;-6.288;2022-07-18T06:17:12;101454.00;;;24.90;51.57
42587;BME280;28216;53.362;-6.288;2022-07-18T06:19:37;101447.81;;;25.01;51.31
42587;BME280;28216;53.362;-6.288;2022-07-18T06:22:04;101462.91;;;25.30;50.29
42587;BME280;28216;53.362;-6.288;2022-07-18T06:24:30;101457.41;;;25.37;49.79
42587;BME280;28216;53.362;-6.288;2022-07-18T06:26:55;101448.78;;;25.35;49.72
42587;BME280;28216;53.362;-6.288;2022-07-18T06:29:21;101450.41;;;25.24;48.75
42587;BME280;28216;53.362;-6.288;2022-07-18T06:31:47;101456.84;;;25.23;48.93
42587;BME280;28216;53.362;-6.288;2022-07-18T06:34:12;101454.38;;;25.33;48.64
42587;BME280;28216;53.362;-6.288;2022-07-18T06:36:38;101448.78;;;25.23;48.89
42587;BME280;28216;53.362;-6.288;2022-07-18T06:39:03;101451.25;;;25.25;48.47
42587;BME280;28216;53.362;-6.288;2022-07-18T06:41:33;101447.88;;;25.29;48.29
42587;BME280;28216;53.362;-6.288;2022-07-18T06:43:59;101444.25;;;25.24;48.09
42587;BME280;28216;53.362;-6.288;2022-07-18T06:46:24;101450.41;;;25.24;47.90
42587;BME280;28216;53.362;-6.288;2022-07-18T06:48:50;101451.94;;;25.32;47.78
42587;BME280;28216;53.362;-6.288;2022-07-18T06:51:16;101454.84;;;25.59;47.45
42587;BME280;28216;53.362;-6.288;2022-07-18T06:53:41;101440.41;;;25.77;47.29
42587;BME280;28216;53.362;-6.288;2022-07-18T06:56:07;101447.47;;;26.00;47.95
42587;BME280;28216;53.362;-6.288;2022-07-18T06:58:32;101447.16;;;26.13;48.39
42587;BME280;28216;53.362;-6.288;2022-07-18T07:00:59;101444.06;;;26.38;48.00
42587;BME280;28216;53.362;-6.288;2022-07-18T07:03:25;101440.47;;;26.71;47.21
42587;BME280;28216;53.362;-6.288;2022-07-18T07:05:50;101446.75;;;26.76;46.54
42587;BME280;28216;53.362;-6.288;2022-07-18T07:08:16;101443.94;;;26.88;46.05
42587;BME280;28216;53.362;-6.288;2022-07-18T07:10:41;101453.78;;;26.99;45.49
42587;BME280;28216;53.362;-6.288;2022-07-18T07:13:07;101453.25;;;27.24;45.14
42587;BME280;28216;53.362;-6.288;2022-07-18T07:15:32;101443.81;;;27.48;45.10
42587;BME280;28216;53.362;-6.288;2022-07-18T07:17:58;101446.94;;;27.94;43.94
42587;BME280;28216;53.362;-6.288;2022-07-18T07:20:23;101439.22;;;28.45;43.43
42587;BME280;28216;53.362;-6.288;2022-07-18T07:22:51;101434.16;;;29.11;41.66
42587;BME280;28216;53.362;-6.288;2022-07-18T07:25:17;101444.53;;;29.75;40.57
42587;BME280;28216;53.362;-6.288;2022-07-18T07:27:43;101439.63;;;30.28;39.60
42587;BME280;28216;53.362;-6.288;2022-07-18T07:30:09;101427.84;;;30.78;38.86
42587;BME280;28216;53.362;-6.288;2022-07-18T07:32:36;101430.88;;;31.26;38.11
42587;BME280;28216;53.362;-6.288;2022-07-18T07:35:03;101432.47;;;31.71;37.26
42587;BME280;28216;53.362;-6.288;2022-07-18T07:37:34;101422.34;;;32.11;36.43
42587;BME280;28216;53.362;-6.288;2022-07-18T07:39:59;101427.34;;;32.51;35.82
42587;BME280;28216;53.362;-6.288;2022-07-18T07:42:25;101424.81;;;32.84;35.11
42587;BME280;28216;53.362;-6.288;2022-07-18T07:44:51;101419.94;;;33.18;34.67
42587;BME280;28216;53.362;-6.288;2022-07-18T07:47:16;101411.72;;;33.61;34.15
42587;BME280;28216;53.362;-6.288;2022-07-18T07:49:42;101408.28;;;33.88;33.09
42587;BME280;28216;53.362;-6.288;2022-07-18T07:52:07;101411.41;;;34.09;32.06
42587;BME280;28216;53.362;-6.288;2022-07-18T07:54:32;101411.34;;;34.28;32.17
42587;BME280;28216;53.362;-6.288;2022-07-18T07:56:58;101407.94;;;34.50;31.83
42587;BME280;28216;53.362;-6.288;2022-07-18T07:59:23;101404.25;;;34.68;31.30
42587;BME280;28216;53.362;-6.288;2022-07-18T08:01:49;101407.88;;;34.91;30.56
42587;BME280;28216;53.362;-6.288;2022-07-18T08:04:14;101405.13;;;35.04;30.49
42587;BME280;28216;53.362;-6.288;2022-07-18T08:06:40;101408.78;;;35.22;30.38
42587;BME280;28216;53.362;-6.288;2022-07-18T08:09:05;101402.59;;;35.30;30.18
42587;BME280;28216;53.362;-6.288;2022-07-18T08:11:33;101405.66;;;35.51;29.40
42587;BME280;28216;53.362;-6.288;2022-07-18T08:13:58;101408.13;;;35.61;29.65
42587;BME280;28216;53.362;-6.288;2022-07-18T08:16:24;101398.91;;;35.71;29.16
42587;BME280;28216;53.362;-6.288;2022-07-18T08:18:49;101398.06;;;35.93;27.79
42587;BME280;28216;53.362;-6.288;2022-07-18T08:21:15;101395.84;;;36.04;27.57
42587;BME280;28216;53.362;-6.288;2022-07-18T08:23:40;101392.03;;;36.13;27.65
42587;BME280;28216;53.362;-6.288;2022-07-18T08:26:06;101394.63;;;36.18;27.35
42587;BME280;28216;53.362;-6.288;2022-07-18T08:28:32;101393.34;;;36.24;27.20
42587;BME280;28216;53.362;-6.288;2022-07-18T08:30:57;101384.91;;;36.35;27.33
42587;BME280;28216;53.362;-6.288;2022-07-18T08:33:23;101388.91;;;36.37;27.11
42587;BME280;28216;53.362;-6.288;2022-07-18T08:35:48;101386.41;;;36.49;26.64
42587;BME280;28216;53.362;-6.288;2022-07-18T08:38:14;101388.81;;;36.59;26.56
42587;BME280;28216;53.362;-6.288;2022-07-18T08:40:40;101389.31;;;36.70;26.05
42587;BME280;28216;53.362;-6.288;2022-07-18T08:43:05;101387.06;;;36.72;25.64
42587;BME280;28216;53.362;-6.288;2022-07-18T08:45:31;101385.50;;;36.80;25.70
42587;BME280;28216;53.362;-6.288;2022-07-18T08:47:56;101387.44;;;36.79;25.47
42587;BME280;28216;53.362;-6.288;2022-07-18T08:50:23;101391.25;;;36.70;25.19
42587;BME280;28216;53.362;-6.288;2022-07-18T08:52:49;101389.81;;;36.72;24.99
42587;BME280;28216;53.362;-6.288;2022-07-18T08:55:15;101395.44;;;36.76;24.87
42587;BME280;28216;53.362;-6.288;2022-07-18T08:57:41;101397.19;;;36.63;25.28
42587;BME280;28216;53.362;-6.288;2022-07-18T09:00:08;101404.09;;;36.60;25.37
42587;BME280;28216;53.362;-6.288;2022-07-18T09:02:35;101399.75;;;36.68;25.34
42587;BME280;28216;53.362;-6.288;2022-07-18T09:05:02;101389.97;;;36.67;24.76
42587;BME280;28216;53.362;-6.288;2022-07-18T09:07:31;101382.56;;;36.59;25.19
42587;BME280;28216;53.362;-6.288;2022-07-18T09:09:58;101385.44;;;36.54;25.01
42587;BME280;28216;53.362;-6.288;2022-07-18T09:12:29;101380.56;;;36.34;25.60
42587;BME280;28216;53.362;-6.288;2022-07-18T09:15:07;101379.84;;;36.19;25.56
42587;BME280;28216;53.362;-6.288;2022-07-18T09:17:34;101369.06;;;36.14;25.51
42587;BME280;28216;53.362;-6.288;2022-07-18T09:20:11;101364.03;;;35.90;26.17
42587;BME280;28216;53.362;-6.288;2022-07-18T09:22:41;101362.38;;;35.81;25.65
42587;BME280;28216;53.362;-6.288;2022-07-18T09:25:10;101360.53;;;35.67;25.32
42587;BME280;28216;53.362;-6.288;2022-07-18T09:27:41;101356.06;;;35.49;25.63
42587;BME280;28216;53.362;-6.288;2022-07-18T09:35:26;101339.78;;;34.41;25.45
42587;BME280;28216;53.362;-6.288;2022-07-18T09:38:08;101345.50;;;34.12;26.08
42587;BME280;28216;53.362;-6.288;2022-07-18T09:40:58;101343.84;;;33.70;25.88
42587;BME280;28216;53.362;-6.288;2022-07-18T09:43:27;101334.50;;;33.43;25.83
42587;BME280;28216;53.362;-6.288;2022-07-18T09:46:04;101336.00;;;33.17;25.95
42587;BME280;28216;53.362;-6.288;2022-07-18T09:48:30;101333.41;;;32.93;26.64
42587;BME280;28216;53.362;-6.288;2022-07-18T09:51:04;101332.28;;;32.75;26.68
42587;BME280;28216;53.362;-6.288;2022-07-18T09:53:41;101332.25;;;32.57;26.79
42587;BME280;28216;53.362;-6.288;2022-07-18T09:56:22;101338.63;;;32.47;26.80
42587;BME280;28216;53.362;-6.288;2022-07-18T09:58:51;101332.47;;;32.41;26.58
42587;BME280;28216;53.362;-6.288;2022-07-18T10:01:17;101331.56;;;32.27;26.82
42587;BME280;28216;53.362;-6.288;2022-07-18T10:03:42;101340.03;;;32.20;27.18
42587;BME280;28216;53.362;-6.288;2022-07-18T10:06:08;101341.47;;;32.13;27.29
42587;BME280;28216;53.362;-6.288;2022-07-18T10:08:34;101328.19;;;32.11;27.48
42587;BME280;28216;53.362;-6.288;2022-07-18T10:11:05;101328.94;;;32.17;27.87
42587;BME280;28216;53.362;-6.288;2022-07-18T10:13:32;101325.66;;;32.20;28.53
42587;BME280;28216;53.362;-6.288;2022-07-18T10:15:58;101335.47;;;32.16;28.46
42587;BME280;28216;53.362;-6.288;2022-07-18T10:18:27;101335.53;;;32.11;28.98
42587;BME280;28216;53.362;-6.288;2022-07-18T10:20:53;101330.63;;;32.13;28.95
42587;BME280;28216;53.362;-6.288;2022-07-18T10:23:40;101337.38;;;32.15;28.72
42587;BME280;28216;53.362;-6.288;2022-07-18T10:31:39;101327.22;;;32.26;28.86
42587;BME280;28216;53.362;-6.288;2022-07-18T10:36:30;101323.94;;;32.29;28.70
42587;BME280;28216;53.362;-6.288;2022-07-18T10:39:10;101322.19;;;32.14;29.13
42587;BME280;28216;53.362;-6.288;2022-07-18T10:47:15;101311.06;;;32.16;29.37
42587;BME280;28216;53.362;-6.288;2022-07-18T10:58:14;101311.47;;;32.28;29.90
42587;BME280;28216;53.362;-6.288;2022-07-18T11:00:37;101317.06;;;32.13;30.38
42587;BME280;28216;53.362;-6.288;2022-07-18T11:03:07;101320.91;;;31.83;30.96
42587;BME280;28216;53.362;-6.288;2022-07-18T11:05:35;101325.47;;;31.58;31.74
42587;BME280;28216;53.362;-6.288;2022-07-18T11:13:28;101315.09;;;31.66;32.73
42587;BME280;28216;53.362;-6.288;2022-07-18T11:16:04;101318.66;;;31.61;32.68
42587;BME280;28216;53.362;-6.288;2022-07-18T11:21:24;101318.47;;;31.81;33.33
42587;BME280;28216;53.362;-6.288;2022-07-18T11:24:03;101312.72;;;31.88;33.46
42587;BME280;28216;53.362;-6.288;2022-07-18T11:26:30;101315.13;;;31.89;33.47
42587;BME280;28216;53.362;-6.288;2022-07-18T11:29:01;101305.59;;;31.92;33.27
42587;BME280;28216;53.362;-6.288;2022-07-18T11:31:27;101312.94;;;31.91;32.95
42587;BME280;28216;53.362;-6.288;2022-07-18T11:33:55;101314.31;;;31.89;33.50
42587;BME280;28216;53.362;-6.288;2022-07-18T11:36:23;101316.16;;;31.93;33.54
42587;BME280;28216;53.362;-6.288;2022-07-18T11:38:58;101311.81;;;31.98;33.32
42587;BME280;28216;53.362;-6.288;2022-07-18T11:41:25;101298.34;;;31.87;33.75
42587;BME280;28216;53.362;-6.288;2022-07-18T11:43:52;101289.75;;;31.80;34.05
42587;BME280;28216;53.362;-6.288;2022-07-18T11:46:19;101280.88;;;31.75;33.90
42587;BME280;28216;53.362;-6.288;2022-07-18T11:48:47;101290.41;;;31.67;34.00
42587;BME280;28216;53.362;-6.288;2022-07-18T11:51:15;101299.69;;;31.61;34.12
42587;BME280;28216;53.362;-6.288;2022-07-18T11:53:48;101300.16;;;31.68;33.96
42587;BME280;28216;53.362;-6.288;2022-07-18T11:56:14;101296.34;;;31.69;33.95
42587;BME280;28216;53.362;-6.288;2022-07-18T11:58:42;101289.84;;;31.70;34.10
42587;BME280;28216;53.362;-6.288;2022-07-18T12:01:08;101296.31;;;31.74;33.91
42587;BME280;28216;53.362;-6.288;2022-07-18T12:03:35;101285.66;;;31.83;33.41
42587;BME280;28216;53.362;-6.288;2022-07-18T12:06:11;101282.28;;;31.96;33.71
42587;BME280;28216;53.362;-6.288;2022-07-18T12:08:45;101267.78;;;32.06;33.16
42587;BME280;28216;53.362;-6.288;2022-07-18T12:13:50;101259.63;;;31.82;33.49
42587;BME280;28216;53.362;-6.288;2022-07-18T12:16:38;101270.78;;;31.51;33.88
42587;BME280;28216;53.362;-6.288;2022-07-18T12:22:03;101265.13;;;31.14;33.95
42587;BME280;28216;53.362;-6.288;2022-07-18T12:24:39;101264.56;;;31.22;33.76
42587;BME280;28216;53.362;-6.288;2022-07-18T12:27:10;101269.84;;;31.37;32.97
42587;BME280;28216;53.362;-6.288;2022-07-18T12:32:23;101261.50;;;31.57;32.43
42587;BME280;28216;53.362;-6.288;2022-07-18T12:35:03;101259.84;;;31.61;32.18
42587;BME280;28216;53.362;-6.288;2022-07-18T12:37:29;101249.72;;;31.72;32.09
42587;BME280;28216;53.362;-6.288;2022-07-18T12:39:58;101252.72;;;31.71;31.53
42587;BME280;28216;53.362;-6.288;2022-07-18T12:42:38;101254.41;;;31.61;30.93
42587;BME280;28216;53.362;-6.288;2022-07-18T12:45:07;101252.00;;;31.60;30.72
42587;BME280;28216;53.362;-6.288;2022-07-18T12:47:33;101242.69;;;31.66;30.17
42587;BME280;28216;53.362;-6.288;2022-07-18T12:49:58;101236.03;;;31.82;30.58
42587;BME280;28216;53.362;-6.288;2022-07-18T12:52:24;101220.94;;;31.95;30.87
42587;BME280;28216;53.362;-6.288;2022-07-18T12:54:50;101221.72;;;32.01;31.10
42587;BME280;28216;53.362;-6.288;2022-07-18T12:57:16;101226.34;;;32.00;31.22
42587;BME280;28216;53.362;-6.288;2022-07-18T12:59:43;101236.41;;;31.95;31.12
42587;BME280;28216;53.362;-6.288;2022-07-18T13:02:10;101232.56;;;32.01;30.99
42587;BME280;28216;53.362;-6.288;2022-07-18T13:04:35;101224.16;;;32.02;30.84
42587;BME280;28216;53.362;-6.288;2022-07-18T13:07:01;101218.34;;;32.09;30.92
42587;BME280;28216;53.362;-6.288;2022-07-18T13:09:26;101218.44;;;32.22;30.50
42587;BME280;28216;53.362;-6.288;2022-07-18T13:11:52;101217.44;;;32.37;30.42
42587;BME280;28216;53.362;-6.288;2022-07-18T13:14:18;101218.97;;;32.43;30.50
42587;BME280;28216;53.362;-6.288;2022-07-18T13:16:44;101223.59;;;32.43;30.57
42587;BME280;28216;53.362;-6.288;2022-07-18T13:19:14;101219.19;;;32.47;30.75
42587;BME280;28216;53.362;-6.288;2022-07-18T13:21:41;101219.19;;;32.47;30.97
42587;BME280;28216;53.362;-6.288;2022-07-18T13:24:06;101208.63;;;32.27;31.44